sensor_id;sensor_type;location;lat;lon;timestamp;temperature;humidity
35111;DHT22;21290;50.158;8.658;2022-10-16T00:02:08;14.90;99.90
35111;DHT22;21290;50.158;8.658;2022-10-16T00:04:34;15.00;99.90
35111;DHT22;21290;50.158;8.658;2022-10-16T00:07:01;14.90;99.90
35111;DHT22;21290;50.158;8.658;2022-10-16T00:09:27;15.00;99.90
35111;DHT22;21290;50.158;8.658;2022-10-16T00:11:54;15.00;99.90
35111;DHT22;21290;50.158;8.658;2022-10-16T00:14:25;15.00;99.90
35111;DHT22;21290;50.158;8.658;2022-10-16T00:16:52;15.00;99.90
35111;DHT22;21290;50.158;8.658;2022-10-16T00:19:18;15.00;99.90
35111;DHT22;21290;50.158;8.658;2022-10-16T00:21:45;15.00;99.90
35111;DHT22;21290;50.158;8.658;2022-10-16T00:24:11;15.10;99.90
35111;DHT22;21290;50.158;8.658;2022-10-16T00:26:38;15.10;99.90
35111;DHT22;21290;50.158;8.658;2022-10-16T00:29:05;15.10;99.90
35111;DHT22;21290;50.158;8.658;2022-10-16T00:31:32;15.10;99.90
35111;DHT22;21290;50.158;8.658;2022-10-16T00:33:58;15.20;99.90
35111;DHT22;21290;50.158;8.658;2022-10-16T00:36:25;15.10;99.90
35111;DHT22;21290;50.158;8.658;2022-10-16T00:38:52;15.10;99.90
35111;DHT22;21290;50.158;8.658;2022-10-16T00:41:21;15.10;99.90
35111;DHT22;21290;50.158;8.658;2022-10-16T00:43:49;15.10;99.90
35111;DHT22;21290;50.158;8.658;2022-10-16T00:48:50;15.20;99.90
35111;DHT22;21290;50.158;8.658;2022-10-16T00:51:18;15.20;99.90
35111;DHT22;21290;50.158;8.658;2022-10-16T00:53:45;15.20;99.90
35111;DHT22;21290;50.158;8.658;2022-10-16T00:56:12;15.20;99.90
35111;DHT22;21290;50.158;8.658;2022-10-16T00:58:39;15.20;99.90
35111;DHT22;21290;50.158;8.658;2022-10-16T01:01:05;15.20;99.90
35111;DHT22;21290;50.158;8.658;2022-10-16T01:03:34;15.30;99.90
35111;DHT22;21290;50.158;8.658;2022-10-16T01:06:21;15.20;99.90
35111;DHT22;21290;50.158;8.658;2022-10-16T01:09:13;15.20;99.90
35111;DHT22;21290;50.158;8.658;2022-10-16T01:11:44;15.30;99.90
35111;DHT22;21290;50.158;8.658;2022-10-16T01:14:15;15.30;99.90
35111;DHT22;21290;50.158;8.658;2022-10-16T01:16:48;15.30;99.90
35111;DHT22;21290;50.158;8.658;2022-10-16T01:19:44;15.30;99.90
35111;DHT22;21290;50.158;8.658;2022-10-16T01:22:05;15.40;99.90
35111;DHT22;21290;50.158;8.658;2022-10-16T01:24:42;15.30;99.90
35111;DHT22;21290;50.158;8.658;2022-10-16T01:27:11;15.40;99.90
35111;DHT22;21290;50.158;8.658;2022-10-16T01:32:33;15.30;99.90
35111;DHT22;21290;50.158;8.658;2022-10-16T01:35:05;15.40;99.90
35111;DHT22;21290;50.158;8.658;2022-10-16T01:37:42;15.30;99.90
35111;DHT22;21290;50.158;8.658;2022-10-16T01:40:11;15.30;99.90
35111;DHT22;21290;50.158;8.658;2022-10-16T01:42:40;15.30;99.90
35111;DHT22;21290;50.158;8.658;2022-10-16T01:45:08;15.30;99.90
35111;DHT22;21290;50.158;8.658;2022-10-16T01:47:37;15.40;99.90
35111;DHT22;21290;50.158;8.658;2022-10-16T01:50:04;15.40;99.90
35111;DHT22;21290;50.158;8.658;2022-10-16T01:52:32;15.40;99.90
35111;DHT22;21290;50.158;8.658;2022-10-16T01:55:00;15.40;99.90
35111;DHT22;21290;50.158;8.658;2022-10-16T01:57:28;15.40;99.90
35111;DHT22;21290;50.158;8.658;2022-10-16T01:59:56;15.40;99.90
35111;DHT22;21290;50.158;8.658;2022-10-16T02:02:24;15.50;99.90
35111;DHT22;21290;50.158;8.658;2022-10-16T02:04:53;15.40;99.90
35111;DHT22;21290;50.158;8.658;2022-10-16T02:07:21;15.40;99.90
35111;DHT22;21290;50.158;8.658;2022-10-16T02:09:48;15.40;99.90
35111;DHT22;21290;50.158;8.658;2022-10-16T02:12:15;15.40;99.90
35111;DHT22;21290;50.158;8.658;2022-10-16T02:14:45;15.40;99.90
35111;DHT22;21290;50.158;8.658;2022-10-16T02:17:15;15.40;99.90
35111;DHT22;21290;50.158;8.658;2022-10-16T02:19:42;15.40;99.90
35111;DHT22;21290;50.158;8.658;2022-10-16T02:22:15;15.40;99.90
35111;DHT22;21290;50.158;8.658;2022-10-16T02:24:53;15.40;99.90
35111;DHT22;21290;50.158;8.658;2022-10-16T02:27:25;15.40;99.90
35111;DHT22;21290;50.158;8.658;2022-10-16T02:29:53;15.40;99.90
35111;DHT22;21290;50.158;8.658;2022-10-16T02:32:26;15.40;99.90
35111;DHT22;21290;50.158;8.658;2022-10-16T02:34:56;15.40;99.90
35111;DHT22;21290;50.158;8.658;2022-10-16T02:37:24;15.40;99.90
35111;DHT22;21290;50.158;8.658;2022-10-16T02:39:50;15.40;99.90
35111;DHT22;21290;50.158;8.658;2022-10-16T02:42:18;15.40;99.90
35111;DHT22;21290;50.158;8.658;2022-10-16T02:44:44;15.40;99.90
35111;DHT22;21290;50.158;8.658;2022-10-16T02:47:11;15.30;99.90
35111;DHT22;21290;50.158;8.658;2022-10-16T02:49:38;15.30;99.90
35111;DHT22;21290;50.158;8.658;2022-10-16T02:52:05;15.30;99.90
35111;DHT22;21290;50.158;8.658;2022-10-16T02:54:31;15.30;99.90
35111;DHT22;21290;50.158;8.658;2022-10-16T02:56:58;15.30;99.90
35111;DHT22;21290;50.158;8.658;2022-10-16T02:59:24;15.20;99.90
35111;DHT22;21290;50.158;8.658;2022-10-16T03:01:50;15.20;99.90
35111;DHT22;21290;50.158;8.658;2022-10-16T03:04:17;15.10;99.90
35111;DHT22;21290;50.158;8.658;2022-10-16T03:06:43;15.10;99.90
35111;DHT22;21290;50.158;8.658;2022-10-16T03:09:10;15.10;99.90
35111;DHT22;21290;50.158;8.658;2022-10-16T03:11:36;15.10;99.90
35111;DHT22;21290;50.158;8.658;2022-10-16T03:14:02;15.00;99.90
35111;DHT22;21290;50.158;8.658;2022-10-16T03:16:29;15.10;99.90
35111;DHT22;21290;50.158;8.658;2022-10-16T03:18:55;15.00;99.90
35111;DHT22;21290;50.158;8.658;2022-10-16T03:21:22;15.00;99.90
35111;DHT22;21290;50.158;8.658;2022-10-16T03:23:48;15.00;99.90
35111;DHT22;21290;50.158;8.658;2022-10-16T03:26:15;15.00;99.90
35111;DHT22;21290;50.158;8.658;2022-10-16T03:28:41;15.00;99.90
35111;DHT22;21290;50.158;8.658;2022-10-16T03:31:08;14.90;99.90
35111;DHT22;21290;50.158;8.658;2022-10-16T03:33:34;14.90;99.90
35111;DHT22;21290;50.158;8.658;2022-10-16T03:36:01;14.90;99.90
35111;DHT22;21290;50.158;8.658;2022-10-16T03:38:27;14.90;99.90
35111;DHT22;21290;50.158;8.658;2022-10-16T03:40:54;14.90;99.90
35111;DHT22;21290;50.158;8.658;2022-10-16T03:43:20;14.90;99.90
35111;DHT22;21290;50.158;8.658;2022-10-16T03:45:47;14.90;99.90
35111;DHT22;21290;50.158;8.658;2022-10-16T03:48:13;14.90;99.90
35111;DHT22;21290;50.158;8.658;2022-10-16T03:50:39;14.90;99.90
35111;DHT22;21290;50.158;8.658;2022-10-16T03:53:06;14.90;99.90
35111;DHT22;21290;50.158;8.658;2022-10-16T03:55:32;14.90;99.90
35111;DHT22;21290;50.158;8.658;2022-10-16T03:57:59;14.90;99.90
35111;DHT22;21290;50.158;8.658;2022-10-16T04:00:34;14.90;99.90
35111;DHT22;21290;50.158;8.658;2022-10-16T04:03:00;14.90;99.90
35111;DHT22;21290;50.158;8.658;2022-10-16T04:05:27;14.90;99.90
35111;DHT22;21290;50.158;8.658;2022-10-16T04:07:53;14.90;99.90
35111;DHT22;21290;50.158;8.658;2022-10-16T04:10:21;14.90;99.90
35111;DHT22;21290;50.158;8.658;2022-10-16T04:12:47;14.90;99.90
35111;DHT22;21290;50.158;8.658;2022-10-16T04:15:14;14.90;99.90
35111;DHT22;21290;50.158;8.658;2022-10-16T04:17:40;14.90;99.90
35111;DHT22;21290;50.158;8.658;2022-10-16T04:20:07;14.90;99.90
35111;DHT22;21290;50.158;8.658;2022-10-16T04:22:33;14.90;99.90
35111;DHT22;21290;50.158;8.658;2022-10-16T04:25:00;14.90;99.90
35111;DHT22;21290;50.158;8.658;2022-10-16T04:27:26;14.90;99.90
35111;DHT22;21290;50.158;8.658;2022-10-16T04:29:53;14.90;99.90
35111;DHT22;21290;50.158;8.658;2022-10-16T04:32:20;14.90;99.90
35111;DHT22;21290;50.158;8.658;2022-10-16T04:34:46;14.90;99.90
35111;DHT22;21290;50.158;8.658;2022-10-16T04:37:13;14.90;99.90
35111;DHT22;21290;50.158;8.658;2022-10-16T04:39:39;14.90;99.90
35111;DHT22;21290;50.158;8.658;2022-10-16T04:42:06;14.90;99.90
35111;DHT22;21290;50.158;8.658;2022-10-16T04:44:32;15.00;99.90
35111;DHT22;21290;50.158;8.658;2022-10-16T04:46:59;15.00;99.90
35111;DHT22;21290;50.158;8.658;2022-10-16T04:49:25;15.00;99.90
35111;DHT22;21290;50.158;8.658;2022-10-16T04:51:52;15.00;99.90
35111;DHT22;21290;50.158;8.658;2022-10-16T04:54:18;15.00;99.90
35111;DHT22;21290;50.158;8.658;2022-10-16T04:56:45;15.00;99.90
35111;DHT22;21290;50.158;8.658;2022-10-16T04:59:16;14.90;99.90
35111;DHT22;21290;50.158;8.658;2022-10-16T05:01:43;15.00;99.90
35111;DHT22;21290;50.158;8.658;2022-10-16T05:04:09;14.90;99.90
35111;DHT22;21290;50.158;8.658;2022-10-16T05:06:36;15.00;99.90
35111;DHT22;21290;50.158;8.658;2022-10-16T05:09:05;15.00;99.90
35111;DHT22;21290;50.158;8.658;2022-10-16T05:11:31;15.00;99.90
35111;DHT22;21290;50.158;8.658;2022-10-16T05:13:58;15.00;99.90
35111;DHT22;21290;50.158;8.658;2022-10-16T05:16:24;15.00;99.90
35111;DHT22;21290;50.158;8.658;2022-10-16T05:18:51;15.00;99.90
35111;DHT22;21290;50.158;8.658;2022-10-16T05:21:21;15.00;99.90
35111;DHT22;21290;50.158;8.658;2022-10-16T05:23:48;15.10;99.90
35111;DHT22;21290;50.158;8.658;2022-10-16T05:26:14;15.10;99.90
35111;DHT22;21290;50.158;8.658;2022-10-16T05:28:41;15.10;99.90
35111;DHT22;21290;50.158;8.658;2022-10-16T05:31:08;15.10;99.90
35111;DHT22;21290;50.158;8.658;2022-10-16T05:33:35;15.10;99.90
35111;DHT22;21290;50.158;8.658;2022-10-16T05:36:05;15.00;99.90
35111;DHT22;21290;50.158;8.658;2022-10-16T05:38:34;15.00;99.90
35111;DHT22;21290;50.158;8.658;2022-10-16T05:41:00;15.00;99.90
35111;DHT22;21290;50.158;8.658;2022-10-16T05:43:27;15.10;99.90
35111;DHT22;21290;50.158;8.658;2022-10-16T05:45:59;15.10;99.90
35111;DHT22;21290;50.158;8.658;2022-10-16T05:48:26;15.10;99.90
35111;DHT22;21290;50.158;8.658;2022-10-16T05:50:59;15.10;99.90
35111;DHT22;21290;50.158;8.658;2022-10-16T05:53:29;15.10;99.90
35111;DHT22;21290;50.158;8.658;2022-10-16T05:55:57;15.10;99.90
35111;DHT22;21290;50.158;8.658;2022-10-16T05:58:23;15.10;99.90
35111;DHT22;21290;50.158;8.658;2022-10-16T06:00:57;15.20;99.90
35111;DHT22;21290;50.158;8.658;2022-10-16T06:03:24;15.20;99.90
35111;DHT22;21290;50.158;8.658;2022-10-16T06:05:50;15.20;99.90
35111;DHT22;21290;50.158;8.658;2022-10-16T06:08:17;15.20;99.90
35111;DHT22;21290;50.158;8.658;2022-10-16T06:10:44;15.20;99.90
35111;DHT22;21290;50.158;8.658;2022-10-16T06:13:11;15.20;99.90
35111;DHT22;21290;50.158;8.658;2022-10-16T06:15:38;15.10;99.90
35111;DHT22;21290;50.158;8.658;2022-10-16T06:18:05;15.20;99.90
35111;DHT22;21290;50.158;8.658;2022-10-16T06:20:31;15.20;99.90
35111;DHT22;21290;50.158;8.658;2022-10-16T06:22:58;15.20;99.90
35111;DHT22;21290;50.158;8.658;2022-10-16T06:25:24;15.20;99.90
35111;DHT22;21290;50.158;8.658;2022-10-16T06:27:51;15.20;99.90
35111;DHT22;21290;50.158;8.658;2022-10-16T06:30:17;15.30;99.90
35111;DHT22;21290;50.158;8.658;2022-10-16T06:32:44;15.30;99.90
35111;DHT22;21290;50.158;8.658;2022-10-16T06:35:10;15.30;99.90
35111;DHT22;21290;50.158;8.658;2022-10-16T06:37:37;15.40;99.90
35111;DHT22;21290;50.158;8.658;2022-10-16T06:40:03;15.40;99.90
35111;DHT22;21290;50.158;8.658;2022-10-16T06:42:30;15.40;99.90
35111;DHT22;21290;50.158;8.658;2022-10-16T06:44:56;15.40;99.90
35111;DHT22;21290;50.158;8.658;2022-10-16T06:47:23;15.50;99.90
35111;DHT22;21290;50.158;8.658;2022-10-16T06:49:49;15.50;99.90
35111;DHT22;21290;50.158;8.658;2022-10-16T06:52:19;15.50;99.90
35111;DHT22;21290;50.158;8.658;2022-10-16T06:54:46;15.50;99.90
35111;DHT22;21290;50.158;8.658;2022-10-16T06:57:12;15.60;99.90
35111;DHT22;21290;50.158;8.658;2022-10-16T06:59:39;15.60;99.90
35111;DHT22;21290;50.158;8.658;2022-10-16T07:02:20;15.70;99.90
35111;DHT22;21290;50.158;8.658;2022-10-16T07:04:46;15.70;99.90
35111;DHT22;21290;50.158;8.658;2022-10-16T07:07:13;15.70;99.90
35111;DHT22;21290;50.158;8.658;2022-10-16T07:09:40;15.70;99.90
35111;DHT22;21290;50.158;8.658;2022-10-16T07:12:06;15.70;99.90
35111;DHT22;21290;50.158;8.658;2022-10-16T07:14:33;15.80;99.90
35111;DHT22;21290;50.158;8.658;2022-10-16T07:16:59;15.80;99.90
35111;DHT22;21290;50.158;8.658;2022-10-16T07:19:25;15.90;99.90
35111;DHT22;21290;50.158;8.658;2022-10-16T07:21:57;15.90;99.90
35111;DHT22;21290;50.158;8.658;2022-10-16T07:24:23;16.00;99.90
35111;DHT22;21290;50.158;8.658;2022-10-16T07:26:51;16.00;99.90
35111;DHT22;21290;50.158;8.658;2022-10-16T07:29:18;16.10;99.90
35111;DHT22;21290;50.158;8.658;2022-10-16T07:31:45;16.10;99.90
35111;DHT22;21290;50.158;8.658;2022-10-16T07:34:12;16.20;99.90
35111;DHT22;21290;50.158;8.658;2022-10-16T07:36:39;16.20;99.90
35111;DHT22;21290;50.158;8.658;2022-10-16T07:39:11;16.10;99.90
35111;DHT22;21290;50.158;8.658;2022-10-16T07:41:37;16.10;99.90
35111;DHT22;21290;50.158;8.658;2022-10-16T07:44:04;16.10;99.90
35111;DHT22;21290;50.158;8.658;2022-10-16T07:46:31;16.10;99.90
35111;DHT22;21290;50.158;8.658;2022-10-16T07:48:59;16.10;99.90
35111;DHT22;21290;50.158;8.658;2022-10-16T07:51:26;16.10;99.90
35111;DHT22;21290;50.158;8.658;2022-10-16T07:53:52;16.10;99.90
35111;DHT22;21290;50.158;8.658;2022-10-16T07:56:19;16.10;99.90
35111;DHT22;21290;50.158;8.658;2022-10-16T07:58:46;16.00;99.90
35111;DHT22;21290;50.158;8.658;2022-10-16T08:01:13;16.00;99.90
35111;DHT22;21290;50.158;8.658;2022-10-16T08:03:44;16.10;99.90
35111;DHT22;21290;50.158;8.658;2022-10-16T08:06:10;16.10;99.90
35111;DHT22;21290;50.158;8.658;2022-10-16T08:08:37;16.10;99.90
35111;DHT22;21290;50.158;8.658;2022-10-16T08:11:03;16.20;99.90
35111;DHT22;21290;50.158;8.658;2022-10-16T08:13:30;16.20;99.90
35111;DHT22;21290;50.158;8.658;2022-10-16T08:15:57;16.20;99.90
35111;DHT22;21290;50.158;8.658;2022-10-16T08:18:23;16.30;99.90
35111;DHT22;21290;50.158;8.658;2022-10-16T08:20:56;16.30;99.90
35111;DHT22;21290;50.158;8.658;2022-10-16T08:23:24;16.30;99.90
35111;DHT22;21290;50.158;8.658;2022-10-16T08:25:52;16.40;99.90
35111;DHT22;21290;50.158;8.658;2022-10-16T08:28:19;16.40;99.90
35111;DHT22;21290;50.158;8.658;2022-10-16T08:30:46;16.40;99.90
35111;DHT22;21290;50.158;8.658;2022-10-16T08:33:13;16.40;99.90
35111;DHT22;21290;50.158;8.658;2022-10-16T08:35:40;16.50;99.90
35111;DHT22;21290;50.158;8.658;2022-10-16T08:38:06;16.60;99.90
35111;DHT22;21290;50.158;8.658;2022-10-16T08:40:33;16.60;99.90
35111;DHT22;21290;50.158;8.658;2022-10-16T08:45:58;16.60;99.90
35111;DHT22;21290;50.158;8.658;2022-10-16T08:48:36;16.60;99.90
35111;DHT22;21290;50.158;8.658;2022-10-16T08:51:06;16.60;99.90
35111;DHT22;21290;50.158;8.658;2022-10-16T08:53:44;16.50;99.90
35111;DHT22;21290;50.158;8.658;2022-10-16T08:56:12;16.50;99.90
35111;DHT22;21290;50.158;8.658;2022-10-16T08:58:39;16.40;99.90
35111;DHT22;21290;50.158;8.658;2022-10-16T09:01:11;16.40;99.90
35111;DHT22;21290;50.158;8.658;2022-10-16T09:03:42;16.30;99.90
35111;DHT22;21290;50.158;8.658;2022-10-16T09:08:56;16.20;99.90
35111;DHT22;21290;50.158;8.658;2022-10-16T09:11:48;16.20;99.90
35111;DHT22;21290;50.158;8.658;2022-10-16T09:14:17;16.30;99.90
35111;DHT22;21290;50.158;8.658;2022-10-16T09:16:48;16.40;99.90
35111;DHT22;21290;50.158;8.658;2022-10-16T09:20:02;16.40;99.90
35111;DHT22;21290;50.158;8.658;2022-10-16T09:22:12;16.50;99.90
35111;DHT22;21290;50.158;8.658;2022-10-16T09:24:40;16.60;99.90
35111;DHT22;21290;50.158;8.658;2022-10-16T09:27:10;16.60;99.90
35111;DHT22;21290;50.158;8.658;2022-10-16T09:29:36;16.60;99.90
35111;DHT22;21290;50.158;8.658;2022-10-16T09:32:37;16.50;99.90
35111;DHT22;21290;50.158;8.658;2022-10-16T09:34:56;16.40;99.90
35111;DHT22;21290;50.158;8.658;2022-10-16T09:37:23;16.40;99.90
35111;DHT22;21290;50.158;8.658;2022-10-16T09:39:52;16.40;99.90
35111;DHT22;21290;50.158;8.658;2022-10-16T09:42:19;16.40;99.90
35111;DHT22;21290;50.158;8.658;2022-10-16T09:44:49;16.40;99.90
35111;DHT22;21290;50.158;8.658;2022-10-16T09:47:20;16.20;99.90
35111;DHT22;21290;50.158;8.658;2022-10-16T09:49:54;16.20;99.90
35111;DHT22;21290;50.158;8.658;2022-10-16T09:52:22;16.10;99.90
35111;DHT22;21290;50.158;8.658;2022-10-16T09:54:49;16.10;99.90
35111;DHT22;21290;50.158;8.658;2022-10-16T09:57:16;16.10;99.90
35111;DHT22;21290;50.158;8.658;2022-10-16T09:59:55;16.10;99.90
35111;DHT22;21290;50.158;8.658;2022-10-16T10:02:34;16.10;99.90
35111;DHT22;21290;50.158;8.658;2022-10-16T10:05:00;16.20;99.90
35111;DHT22;21290;50.158;8.658;2022-10-16T10:07:29;16.20;99.90
35111;DHT22;21290;50.158;8.658;2022-10-16T10:09:59;16.30;99.90
35111;DHT22;21290;50.158;8.658;2022-10-16T10:12:27;16.30;99.90
35111;DHT22;21290;50.158;8.658;2022-10-16T10:14:58;16.40;99.90
35111;DHT22;21290;50.158;8.658;2022-10-16T10:17:29;16.50;99.90
35111;DHT22;21290;50.158;8.658;2022-10-16T10:20:00;16.90;99.90
35111;DHT22;21290;50.158;8.658;2022-10-16T10:27:59;19.00;99.90
35111;DHT22;21290;50.158;8.658;2022-10-16T10:30:44;20.80;99.90
35111;DHT22;21290;50.158;8.658;2022-10-16T10:33:21;23.60;99.90
35111;DHT22;21290;50.158;8.658;2022-10-16T10:38:38;26.30;99.90
35111;DHT22;21290;50.158;8.658;2022-10-16T10:44:16;25.20;99.90
35111;DHT22;21290;50.158;8.658;2022-10-16T10:46:51;24.10;99.90
35111;DHT22;21290;50.158;8.658;2022-10-16T10:49:30;23.60;99.90
35111;DHT22;21290;50.158;8.658;2022-10-16T10:54:39;24.20;99.90
35111;DHT22;21290;50.158;8.658;2022-10-16T11:04:54;23.60;99.90
35111;DHT22;21290;50.158;8.658;2022-10-16T11:07:23;23.20;99.90
35111;DHT22;21290;50.158;8.658;2022-10-16T11:10:01;22.60;99.90
35111;DHT22;21290;50.158;8.658;2022-10-16T11:12:30;22.10;99.90
35111;DHT22;21290;50.158;8.658;2022-10-16T11:17:28;21.50;99.90
35111;DHT22;21290;50.158;8.658;2022-10-16T11:20:05;21.60;99.90
35111;DHT22;21290;50.158;8.658;2022-10-16T11:22:38;23.30;99.90
35111;DHT22;21290;50.158;8.658;2022-10-16T11:25:12;24.00;99.90
35111;DHT22;21290;50.158;8.658;2022-10-16T11:27:53;24.00;99.90
35111;DHT22;21290;50.158;8.658;2022-10-16T11:30:22;25.00;99.90
35111;DHT22;21290;50.158;8.658;2022-10-16T11:33:08;25.10;99.90
35111;DHT22;21290;50.158;8.658;2022-10-16T11:35:49;24.80;99.90
35111;DHT22;21290;50.158;8.658;2022-10-16T11:40:50;23.30;99.90
35111;DHT22;21290;50.158;8.658;2022-10-16T11:43:26;22.70;99.90
35111;DHT22;21290;50.158;8.658;2022-10-16T11:45:54;22.30;99.90
35111;DHT22;21290;50.158;8.658;2022-10-16T11:48:23;21.80;99.90
35111;DHT22;21290;50.158;8.658;2022-10-16T11:56:11;21.10;99.90
35111;DHT22;21290;50.158;8.658;2022-10-16T11:58:41;21.40;99.90
35111;DHT22;21290;50.158;8.658;2022-10-16T12:03:46;22.00;99.90
35111;DHT22;21290;50.158;8.658;2022-10-16T12:09:02;22.20;99.90
35111;DHT22;21290;50.158;8.658;2022-10-16T12:14:06;21.90;99.90
35111;DHT22;21290;50.158;8.658;2022-10-16T12:16:33;21.60;99.90
35111;DHT22;21290;50.158;8.658;2022-10-16T12:19:13;21.30;99.90
35111;DHT22;21290;50.158;8.658;2022-10-16T12:21:40;21.20;99.90
35111;DHT22;21290;50.158;8.658;2022-10-16T12:24:06;21.10;99.90
35111;DHT22;21290;50.158;8.658;2022-10-16T12:26:46;21.00;99.90
35111;DHT22;21290;50.158;8.658;2022-10-16T12:31:43;21.20;99.90
35111;DHT22;21290;50.158;8.658;2022-10-16T12:34:39;21.20;99.90
35111;DHT22;21290;50.158;8.658;2022-10-16T12:37:11;21.10;99.90
35111;DHT22;21290;50.158;8.658;2022-10-16T12:39:39;21.10;99.90
35111;DHT22;21290;50.158;8.658;2022-10-16T12:42:51;21.20;99.90
35111;DHT22;21290;50.158;8.658;2022-10-16T12:44:53;21.10;99.90
35111;DHT22;21290;50.158;8.658;2022-10-16T12:47:24;21.00;99.90
35111;DHT22;21290;50.158;8.658;2022-10-16T12:50:01;21.00;99.90
35111;DHT22;21290;50.158;8.658;2022-10-16T12:52:37;21.10;99.90
35111;DHT22;21290;50.158;8.658;2022-10-16T12:55:05;21.20;99.90
35111;DHT22;21290;50.158;8.658;2022-10-16T13:00:43;21.30;99.90
35111;DHT22;21290;50.158;8.658;2022-10-16T13:03:22;21.50;99.90
35111;DHT22;21290;50.158;8.658;2022-10-16T13:08:56;21.40;99.90
35111;DHT22;21290;50.158;8.658;2022-10-16T13:11:48;21.50;99.90
35111;DHT22;21290;50.158;8.658;2022-10-16T13:14:33;21.40;99.90
35111;DHT22;21290;50.158;8.658;2022-10-16T13:22:18;21.10;99.90
35111;DHT22;21290;50.158;8.658;2022-10-16T13:24:59;21.10;99.90
35111;DHT22;21290;50.158;8.658;2022-10-16T13:27:31;21.00;99.90
35111;DHT22;21290;50.158;8.658;2022-10-16T13:30:02;21.00;99.90
35111;DHT22;21290;50.158;8.658;2022-10-16T13:32:34;21.00;99.90
35111;DHT22;21290;50.158;8.658;2022-10-16T13:35:01;21.00;99.90
35111;DHT22;21290;50.158;8.658;2022-10-16T13:37:27;20.90;99.90
35111;DHT22;21290;50.158;8.658;2022-10-16T13:42:40;20.90;99.90
35111;DHT22;21290;50.158;8.658;2022-10-16T13:45:16;21.00;99.90
35111;DHT22;21290;50.158;8.658;2022-10-16T13:47:43;21.20;99.90
35111;DHT22;21290;50.158;8.658;2022-10-16T13:50:11;21.30;99.90
35111;DHT22;21290;50.158;8.658;2022-10-16T13:52:38;21.30;99.90
35111;DHT22;21290;50.158;8.658;2022-10-16T13:55:12;21.30;99.90
35111;DHT22;21290;50.158;8.658;2022-10-16T13:57:38;21.20;99.90
35111;DHT22;21290;50.158;8.658;2022-10-16T14:00:19;21.10;99.90
35111;DHT22;21290;50.158;8.658;2022-10-16T14:02:49;21.00;99.90
35111;DHT22;21290;50.158;8.658;2022-10-16T14:05:16;20.90;99.90
35111;DHT22;21290;50.158;8.658;2022-10-16T14:07:43;20.90;99.90
35111;DHT22;21290;50.158;8.658;2022-10-16T14:10:19;20.80;99.90
35111;DHT22;21290;50.158;8.658;2022-10-16T14:12:53;20.70;99.90
35111;DHT22;21290;50.158;8.658;2022-10-16T14:15:20;20.60;99.90
35111;DHT22;21290;50.158;8.658;2022-10-16T14:17:49;20.50;99.90
35111;DHT22;21290;50.158;8.658;2022-10-16T14:20:16;20.50;99.90
35111;DHT22;21290;50.158;8.658;2022-10-16T14:22:43;20.40;99.90
35111;DHT22;21290;50.158;8.658;2022-10-16T14:27:45;20.30;99.90
35111;DHT22;21290;50.158;8.658;2022-10-16T14:30:16;20.20;99.90
35111;DHT22;21290;50.158;8.658;2022-10-16T14:33:00;20.20;99.90
35111;DHT22;21290;50.158;8.658;2022-10-16T14:37:56;20.10;99.90
35111;DHT22;21290;50.158;8.658;2022-10-16T14:40:25;20.10;99.90
35111;DHT22;21290;50.158;8.658;2022-10-16T14:42:52;20.10;99.90
35111;DHT22;21290;50.158;8.658;2022-10-16T14:45:23;20.20;99.90
35111;DHT22;21290;50.158;8.658;2022-10-16T14:47:52;20.30;99.90
35111;DHT22;21290;50.158;8.658;2022-10-16T14:50:20;20.30;99.90
35111;DHT22;21290;50.158;8.658;2022-10-16T14:52:46;20.40;99.90
35111;DHT22;21290;50.158;8.658;2022-10-16T14:55:13;20.40;99.90
35111;DHT22;21290;50.158;8.658;2022-10-16T14:57:39;20.40;99.90
35111;DHT22;21290;50.158;8.658;2022-10-16T15:00:10;20.40;99.90
35111;DHT22;21290;50.158;8.658;2022-10-16T15:02:39;20.30;99.90
35111;DHT22;21290;50.158;8.658;2022-10-16T15:07:39;20.30;99.90
35111;DHT22;21290;50.158;8.658;2022-10-16T15:10:05;20.20;99.90
35111;DHT22;21290;50.158;8.658;2022-10-16T15:12:31;20.30;99.90
35111;DHT22;21290;50.158;8.658;2022-10-16T15:14:58;20.30;99.90
35111;DHT22;21290;50.158;8.658;2022-10-16T15:17:24;20.20;99.90
35111;DHT22;21290;50.158;8.658;2022-10-16T15:19:51;20.20;99.90
35111;DHT22;21290;50.158;8.658;2022-10-16T15:22:18;20.20;99.90
35111;DHT22;21290;50.158;8.658;2022-10-16T15:24:44;20.20;99.90
35111;DHT22;21290;50.158;8.658;2022-10-16T15:27:11;20.10;99.90
35111;DHT22;21290;50.158;8.658;2022-10-16T15:29:37;20.10;99.90
35111;DHT22;21290;50.158;8.658;2022-10-16T15:32:04;20.10;99.90
35111;DHT22;21290;50.158;8.658;2022-10-16T15:34:30;20.10;99.90
35111;DHT22;21290;50.158;8.658;2022-10-16T15:36:57;20.00;99.90
35111;DHT22;21290;50.158;8.658;2022-10-16T15:39:24;20.00;99.90
35111;DHT22;21290;50.158;8.658;2022-10-16T15:41:50;19.90;99.90
35111;DHT22;21290;50.158;8.658;2022-10-16T15:44:17;19.90;99.90
35111;DHT22;21290;50.158;8.658;2022-10-16T15:46:44;19.80;99.90
35111;DHT22;21290;50.158;8.658;2022-10-16T15:49:10;19.80;99.90
35111;DHT22;21290;50.158;8.658;2022-10-16T15:51:38;19.70;99.90
35111;DHT22;21290;50.158;8.658;2022-10-16T15:54:05;19.70;99.90
35111;DHT22;21290;50.158;8.658;2022-10-16T15:56:31;19.70;99.90
35111;DHT22;21290;50.158;8.658;2022-10-16T15:58:59;19.60;99.90
35111;DHT22;21290;50.158;8.658;2022-10-16T16:01:26;19.60;99.90
35111;DHT22;21290;50.158;8.658;2022-10-16T16:03:53;19.50;99.90
35111;DHT22;21290;50.158;8.658;2022-10-16T16:06:20;19.40;99.90
35111;DHT22;21290;50.158;8.658;2022-10-16T16:08:46;19.40;99.90
35111;DHT22;21290;50.158;8.658;2022-10-16T16:11:14;19.40;99.90
35111;DHT22;21290;50.158;8.658;2022-10-16T16:13:41;19.30;99.90
35111;DHT22;21290;50.158;8.658;2022-10-16T16:16:08;19.20;99.90
35111;DHT22;21290;50.158;8.658;2022-10-16T16:18:35;19.20;99.90
35111;DHT22;21290;50.158;8.658;2022-10-16T16:21:02;19.10;99.90
35111;DHT22;21290;50.158;8.658;2022-10-16T16:23:29;19.10;99.90
35111;DHT22;21290;50.158;8.658;2022-10-16T16:26:02;19.00;99.90
35111;DHT22;21290;50.158;8.658;2022-10-16T16:28:28;19.00;99.90
35111;DHT22;21290;50.158;8.658;2022-10-16T16:30:56;18.90;99.90
35111;DHT22;21290;50.158;8.658;2022-10-16T16:33:23;18.80;99.90
35111;DHT22;21290;50.158;8.658;2022-10-16T16:35:50;18.80;99.90
35111;DHT22;21290;50.158;8.658;2022-10-16T16:38:16;18.70;99.90
35111;DHT22;21290;50.158;8.658;2022-10-16T16:40:43;18.60;99.90
35111;DHT22;21290;50.158;8.658;2022-10-16T16:43:09;18.60;99.90
35111;DHT22;21290;50.158;8.658;2022-10-16T16:45:36;18.70;99.90
35111;DHT22;21290;50.158;8.658;2022-10-16T16:48:02;18.60;99.90
35111;DHT22;21290;50.158;8.658;2022-10-16T16:50:29;18.50;99.90
35111;DHT22;21290;50.158;8.658;2022-10-16T16:52:55;18.40;99.90
35111;DHT22;21290;50.158;8.658;2022-10-16T16:55:22;18.30;99.90
35111;DHT22;21290;50.158;8.658;2022-10-16T16:57:48;18.20;99.90